aviador You're here:

KBIX Decoded Metar

BILOXI in MS, USA
Report Time2017-08-20 12:58:00
UTC Time2017-08-20 13:40:49
Flight Rules vfr VFR
Wind040° at 04 kt
W.Decomp.*RWY 03: 4.0 kt HW 0.6 kt RCW
W.Rank040° ranks 2
Current wind is below 040° avg. (5.9)
Visibility9999 m
Phenomena:N/A
Clouds:N/A
Expected CloudBase > 800 ft AGL from Temp-Dew spread
CeilingNone
Temp25°C (ISA +10)
Dew Point23°C (89% RH)
QNH1017 hPa
Density Alt1,434 ft
Elevation33 ft
Report Wrong Elevation
Raw Report
KBIX 201258Z AUTO 04004KT 10SM CLR 25/23 A3004 RMK AO2 SLP175
T02460226=

Extra information for KBIX:More info

Metar Taf Metar & Taf Last 4 Metars F.Rules Stats Wind Profile Meteogram Temp Stats Airport Information Weather charts Add Link Nearby VenuesMetar ALERT Operation Metar Decoded Social comments

AIRNAV info for KBIX